createdAt,value
2018-09-30T00:00:09.977Z,99.99
2018-09-30T00:01:09.967Z,99.99
2018-09-30T00:02:09.694Z,99.99
2018-09-30T00:03:09.938Z,99.99
2018-09-30T00:04:09.923Z,99.99
2018-09-30T00:05:09.908Z,99.99
2018-09-30T00:06:09.892Z,99.99
2018-09-30T00:07:09.875Z,99.99
2018-09-30T00:08:09.864Z,99.99
2018-09-30T00:09:09.846Z,99.99
2018-09-30T00:10:09.837Z,99.99
2018-09-30T00:11:09.822Z,99.99
2018-09-30T00:12:09.804Z,99.99
2018-09-30T00:13:09.791Z,99.99
2018-09-30T00:14:09.777Z,99.99
2018-09-30T00:15:09.764Z,99.99
2018-09-30T00:16:09.755Z,99.99
2018-09-30T00:17:09.748Z,99.99
2018-09-30T00:18:09.721Z,99.99
2018-09-30T00:19:09.448Z,99.99
2018-09-30T00:20:09.432Z,99.99
2018-09-30T00:21:09.426Z,99.99
2018-09-30T00:22:09.662Z,99.99
2018-09-30T00:23:09.650Z,99.99
2018-09-30T00:24:09.639Z,99.99
2018-09-30T00:25:09.620Z,99.99
2018-09-30T00:26:09.604Z,99.99
2018-09-30T00:27:09.589Z,99.99
2018-09-30T00:28:09.580Z,99.99
2018-09-30T00:29:09.564Z,99.99
2018-09-30T00:30:09.290Z,99.99
2018-09-30T00:31:09.598Z,99.99
2018-09-30T00:32:09.521Z,99.99
2018-09-30T00:33:09.505Z,99.99
2018-09-30T00:34:09.233Z,99.99
2018-09-30T00:35:09.481Z,99.99
2018-09-30T00:36:09.264Z,99.99
2018-09-30T00:37:09.444Z,99.99
2018-09-30T00:38:09.431Z,99.99
2018-09-30T00:39:09.418Z,99.99
2018-09-30T00:40:09.408Z,99.99
2018-09-30T00:41:09.387Z,99.99
2018-09-30T00:42:09.376Z,99.99
2018-09-30T00:43:09.358Z,99.99
2018-09-30T00:44:09.105Z,99.99
2018-09-30T00:45:09.078Z,99.99
2018-09-30T00:46:09.313Z,99.99
2018-09-30T00:47:09.299Z,99.99
2018-09-30T00:48:09.286Z,99.99
2018-09-30T00:49:09.273Z,99.99
2018-09-30T00:50:09.259Z,99.99
2018-09-30T00:51:09.246Z,99.99
2018-09-30T00:52:08.977Z,99.99
2018-09-30T00:53:09.220Z,99.99
2018-09-30T00:54:08.949Z,99.99
2018-09-30T00:55:09.193Z,99.99
2018-09-30T00:56:09.175Z,99.99
2018-09-30T00:57:08.906Z,99.99
2018-09-30T00:58:09.147Z,99.99
2018-09-30T00:59:09.130Z,99.99
2018-09-30T01:00:09.120Z,99.99
2018-09-30T01:01:09.103Z,99.99
2018-09-30T01:02:09.096Z,99.99
2018-09-30T01:03:09.075Z,99.99
2018-09-30T01:04:08.810Z,99.99
2018-09-30T01:05:09.047Z,99.99
2018-09-30T01:06:08.777Z,99.99
2018-09-30T01:07:09.022Z,99.99
2018-09-30T01:08:08.748Z,99.99
2018-09-30T01:09:08.734Z,99.99
2018-09-30T01:10:08.979Z,99.99
2018-09-30T01:11:08.706Z,99.99
2018-09-30T01:12:08.947Z,99.99
2018-09-30T01:13:08.932Z,99.99
2018-09-30T01:14:08.923Z,99.99
2018-09-30T01:15:08.648Z,99.99
2018-09-30T01:16:08.889Z,99.99
2018-09-30T01:17:08.877Z,99.99
2018-09-30T01:18:08.865Z,99.99
2018-09-30T01:19:08.594Z,99.99
2018-09-30T01:20:08.837Z,99.99
2018-09-30T01:21:08.821Z,99.99
2018-09-30T01:22:08.807Z,99.99
2018-09-30T01:23:08.537Z,99.99
2018-09-30T01:24:08.777Z,99.99
2018-09-30T01:25:08.512Z,99.99
2018-09-30T01:26:08.760Z,99.99
2018-09-30T01:27:08.735Z,99.99
2018-09-30T01:28:08.724Z,99.99
2018-09-30T01:29:08.454Z,99.99
2018-09-30T01:30:08.697Z,99.99
2018-09-30T01:31:08.427Z,99.99
2018-09-30T01:32:08.678Z,99.99
2018-09-30T01:33:08.399Z,99.99
2018-09-30T01:34:08.387Z,99.99
2018-09-30T01:35:08.624Z,99.99
2018-09-30T01:36:08.613Z,99.99
2018-09-30T01:37:08.343Z,99.99
2018-09-30T01:38:08.587Z,99.99
2018-09-30T01:39:08.573Z,99.99
2018-09-30T01:40:08.556Z,99.99
2018-09-30T01:41:08.541Z,99.99
2018-09-30T01:42:08.531Z,99.99
2018-09-30T01:43:08.519Z,99.99
2018-09-30T01:44:08.503Z,99.99
2018-09-30T01:45:08.485Z,99.99
2018-09-30T01:46:08.472Z,99.99
2018-09-30T01:47:08.458Z,99.99
2018-09-30T01:48:08.190Z,99.99
2018-09-30T01:49:08.429Z,99.99
2018-09-30T01:50:08.423Z,99.99
2018-09-30T01:51:08.150Z,99.99
2018-09-30T01:52:08.392Z,99.99
2018-09-30T01:53:08.378Z,99.99
2018-09-30T01:54:08.363Z,99.99
2018-09-30T01:55:08.094Z,99.99
2018-09-30T01:56:08.335Z,99.99
2018-09-30T01:57:08.325Z,99.99
2018-09-30T01:58:08.306Z,99.99
2018-09-30T01:59:08.292Z,99.99
2018-09-30T02:00:08.024Z,99.99
2018-09-30T02:01:08.015Z,99.99
2018-09-30T02:02:08.248Z,99.99
2018-09-30T02:03:07.983Z,99.99
2018-09-30T02:04:07.969Z,99.99
2018-09-30T02:05:08.208Z,99.99
2018-09-30T02:06:07.943Z,99.99
2018-09-30T02:07:08.182Z,99.99
2018-09-30T02:08:08.173Z,99.99
2018-09-30T02:09:08.154Z,99.99
2018-09-30T02:10:08.148Z,99.99
2018-09-30T02:11:07.873Z,99.99
2018-09-30T02:12:08.115Z,99.99
2018-09-30T02:13:08.099Z,99.99
2018-09-30T02:14:08.084Z,99.99
2018-09-30T02:15:08.073Z,99.99
2018-09-30T02:16:08.057Z,99.99
2018-09-30T02:17:08.043Z,99.99
2018-09-30T02:18:08.030Z,99.99
2018-09-30T02:19:08.015Z,99.99
2018-09-30T02:20:08.004Z,99.99
2018-09-30T02:21:07.989Z,99.99
2018-09-30T02:22:07.725Z,99.99
2018-09-30T02:23:07.958Z,99.99
2018-09-30T02:24:07.950Z,99.99
2018-09-30T02:25:07.932Z,99.99
2018-09-30T02:26:07.919Z,99.99
2018-09-30T02:27:07.652Z,99.99
2018-09-30T02:28:07.892Z,99.99
2018-09-30T02:29:07.878Z,99.99
2018-09-30T02:30:07.611Z,99.99
2018-09-30T02:31:07.596Z,99.99
2018-09-30T02:32:07.867Z,99.99
2018-09-30T02:33:07.834Z,99.99
2018-09-30T02:34:07.813Z,99.99
2018-09-30T02:35:07.798Z,99.99
2018-09-30T02:36:07.528Z,99.99
2018-09-30T02:37:07.512Z,99.99
2018-09-30T02:38:07.763Z,99.99
2018-09-30T02:39:07.741Z,99.99
2018-09-30T02:40:07.473Z,99.99
2018-09-30T02:41:07.713Z,99.99
2018-09-30T02:42:07.717Z,99.99
2018-09-30T02:43:07.685Z,99.99
2018-09-30T02:44:07.670Z,99.99
2018-09-30T02:45:07.660Z,99.99
2018-09-30T02:46:07.647Z,99.99
2018-09-30T02:47:07.631Z,99.99
2018-09-30T02:48:07.616Z,99.99
2018-09-30T02:49:07.634Z,99.99
2018-09-30T02:50:07.333Z,99.99
2018-09-30T02:51:07.323Z,99.99
2018-09-30T02:52:07.310Z,99.99
2018-09-30T02:53:07.550Z,99.99
2018-09-30T02:54:07.533Z,99.99
2018-09-30T02:55:07.518Z,99.99
2018-09-30T02:56:07.504Z,99.99
2018-09-30T02:57:07.240Z,99.99
2018-09-30T02:58:07.482Z,99.99
2018-09-30T02:59:07.464Z,99.99
2018-09-30T03:00:07.450Z,99.99
2018-09-30T03:01:07.435Z,99.99
2018-09-30T03:02:07.431Z,99.99
2018-09-30T03:03:07.407Z,99.99
2018-09-30T03:04:07.392Z,99.99
2018-09-30T03:05:07.382Z,99.99
2018-09-30T03:06:07.366Z,99.99
2018-09-30T03:07:07.349Z,99.99
2018-09-30T03:08:07.346Z,99.99
2018-09-30T03:09:07.073Z,99.99
2018-09-30T03:10:07.310Z,99.99
2018-09-30T03:11:07.302Z,99.99
2018-09-30T03:12:07.283Z,99.99
2018-09-30T03:13:07.268Z,99.99
2018-09-30T03:14:07.253Z,99.99
2018-09-30T03:15:07.238Z,99.99
2018-09-30T03:16:07.233Z,99.99
2018-09-30T03:17:07.208Z,99.99
2018-09-30T03:18:07.205Z,99.99
2018-09-30T03:19:07.193Z,99.99
2018-09-30T03:20:07.170Z,99.99
2018-09-30T03:21:07.153Z,99.99
2018-09-30T03:22:07.145Z,99.99
2018-09-30T03:23:07.130Z,99.99
2018-09-30T03:24:07.118Z,99.99
2018-09-30T03:25:06.845Z,99.99
2018-09-30T03:26:07.090Z,99.99
2018-09-30T03:27:07.075Z,99.99
2018-09-30T03:28:06.801Z,99.99
2018-09-30T03:29:07.061Z,99.99
2018-09-30T03:30:07.032Z,99.99
2018-09-30T03:31:06.767Z,99.99
2018-09-30T03:32:07.018Z,99.99
2018-09-30T03:33:06.986Z,99.99
2018-09-30T03:34:06.716Z,99.99
2018-09-30T03:35:06.961Z,99.99
2018-09-30T03:36:06.688Z,99.99
2018-09-30T03:37:06.933Z,99.99
2018-09-30T03:38:06.918Z,99.99
2018-09-30T03:39:06.646Z,99.99
2018-09-30T03:40:06.637Z,99.99
2018-09-30T03:41:06.877Z,99.99
2018-09-30T03:42:06.860Z,99.99
2018-09-30T03:43:06.847Z,99.99
2018-09-30T03:44:06.832Z,99.99
2018-09-30T03:45:06.818Z,99.99
2018-09-30T03:46:06.550Z,99.99
2018-09-30T03:47:06.795Z,99.99
2018-09-30T03:48:06.777Z,99.99
2018-09-30T03:49:06.765Z,99.99
2018-09-30T03:50:06.756Z,99.99
2018-09-30T03:51:06.737Z,99.99
2018-09-30T03:52:06.721Z,99.99
2018-09-30T03:53:06.705Z,99.99
2018-09-30T03:54:06.695Z,99.99
2018-09-30T03:55:06.427Z,99.99
2018-09-30T03:56:06.668Z,99.99
2018-09-30T03:57:06.651Z,99.99
2018-09-30T03:58:06.639Z,99.99
2018-09-30T03:59:06.622Z,99.99
2018-09-30T04:00:06.692Z,99.99
2018-09-30T04:01:06.593Z,99.99
2018-09-30T04:02:06.581Z,99.99
2018-09-30T04:03:06.564Z,99.99
2018-09-30T04:04:06.552Z,99.99
2018-09-30T04:05:06.546Z,99.99
2018-09-30T04:06:06.532Z,99.99
2018-09-30T04:07:06.509Z,99.99
2018-09-30T04:08:06.519Z,99.99
2018-09-30T04:09:06.486Z,99.99
2018-09-30T04:10:06.589Z,99.99
2018-09-30T04:11:06.454Z,99.99
2018-09-30T04:12:06.440Z,99.99
2018-09-30T04:13:06.428Z,99.99
2018-09-30T04:14:06.410Z,99.99
2018-09-30T04:15:06.145Z,99.99
2018-09-30T04:16:06.385Z,99.99
2018-09-30T04:17:06.200Z,99.99
2018-09-30T04:18:06.357Z,99.99
2018-09-30T04:19:06.351Z,99.99
2018-09-30T04:20:06.077Z,99.99
2018-09-30T04:21:06.060Z,99.99
2018-09-30T04:22:06.305Z,99.99
2018-09-30T04:23:06.288Z,99.99
2018-09-30T04:24:06.276Z,99.99
2018-09-30T04:25:06.001Z,99.99
2018-09-30T04:26:06.243Z,99.99
2018-09-30T04:27:06.233Z,99.99
2018-09-30T04:28:05.961Z,99.99
2018-09-30T04:29:06.201Z,99.99
2018-09-30T04:30:05.933Z,99.99
2018-09-30T04:31:05.917Z,99.99
2018-09-30T04:32:06.203Z,99.99
2018-09-30T04:33:05.935Z,99.99
2018-09-30T04:34:06.132Z,99.99
2018-09-30T04:35:06.118Z,99.99
2018-09-30T04:36:06.100Z,99.99
2018-09-30T04:37:06.089Z,99.99
2018-09-30T04:38:06.077Z,99.99
2018-09-30T04:39:05.806Z,99.99
2018-09-30T04:40:05.791Z,99.99
2018-09-30T04:41:05.817Z,99.99
2018-09-30T04:42:06.023Z,99.99
2018-09-30T04:43:05.752Z,99.99
2018-09-30T04:44:05.735Z,99.99
2018-09-30T04:45:05.978Z,99.99
2018-09-30T04:46:05.708Z,99.99
2018-09-30T04:47:05.693Z,99.99
2018-09-30T04:48:05.936Z,99.99
2018-09-30T04:49:05.664Z,99.99
2018-09-30T04:50:06.134Z,99.99
2018-09-30T04:51:05.893Z,99.99
2018-09-30T04:52:05.621Z,99.99
2018-09-30T04:53:05.863Z,99.99
2018-09-30T04:54:05.851Z,99.99
2018-09-30T04:55:05.626Z,99.99
2018-09-30T04:56:05.825Z,99.99
2018-09-30T04:57:05.811Z,99.99
2018-09-30T04:58:05.790Z,99.99
2018-09-30T04:59:05.779Z,99.99
2018-09-30T05:00:05.761Z,99.99
2018-09-30T05:01:05.492Z,99.99
2018-09-30T05:02:05.735Z,99.99
2018-09-30T05:03:05.721Z,99.99
2018-09-30T05:04:05.705Z,99.99
2018-09-30T05:05:05.439Z,99.99
2018-09-30T05:06:05.690Z,99.99
2018-09-30T05:07:05.661Z,99.99
2018-09-30T05:08:05.649Z,99.99
2018-09-30T05:09:05.633Z,99.99
2018-09-30T05:10:05.365Z,99.99
2018-09-30T05:11:05.605Z,99.99
2018-09-30T05:12:05.590Z,99.99
2018-09-30T05:13:05.582Z,99.99
2018-09-30T05:14:05.562Z,99.99
2018-09-30T05:15:05.295Z,99.99
2018-09-30T05:16:05.701Z,99.99
2018-09-30T05:17:05.264Z,99.99
2018-09-30T05:18:05.507Z,99.99
2018-09-30T05:19:05.492Z,99.99
2018-09-30T05:20:05.221Z,99.99
2018-09-30T05:21:05.206Z,99.99
2018-09-30T05:22:05.194Z,99.99
2018-09-30T05:23:05.435Z,99.99
2018-09-30T05:24:05.421Z,99.99
2018-09-30T05:25:05.405Z,99.99
2018-09-30T05:26:05.396Z,99.99
2018-09-30T05:27:05.377Z,99.99
2018-09-30T05:28:05.364Z,99.99
2018-09-30T05:29:05.347Z,99.99
2018-09-30T05:30:05.341Z,99.99
2018-09-30T05:31:05.114Z,99.99
2018-09-30T05:32:05.051Z,99.99
2018-09-30T05:33:05.294Z,99.99
2018-09-30T05:34:05.274Z,99.99
2018-09-30T05:35:05.261Z,99.99
2018-09-30T05:36:05.246Z,99.99
2018-09-30T05:37:05.006Z,99.99
2018-09-30T05:38:04.964Z,99.99
2018-09-30T05:39:05.206Z,99.99
2018-09-30T05:40:05.194Z,99.99
2018-09-30T05:41:04.921Z,99.99
2018-09-30T05:42:04.908Z,99.99
2018-09-30T05:43:05.148Z,99.99
2018-09-30T05:44:05.135Z,99.99
2018-09-30T05:45:05.127Z,99.99
2018-09-30T05:46:05.102Z,99.99
2018-09-30T05:47:05.091Z,99.99
2018-09-30T05:48:05.075Z,99.99
2018-09-30T05:49:05.251Z,99.99
2018-09-30T05:50:04.791Z,99.99
2018-09-30T05:51:05.032Z,99.99
2018-09-30T05:52:05.018Z,99.99
2018-09-30T05:53:04.749Z,99.99
2018-09-30T05:54:04.737Z,99.99
2018-09-30T05:55:04.721Z,99.99
2018-09-30T05:56:04.707Z,99.99
2018-09-30T05:57:04.945Z,99.99
2018-09-30T05:58:05.082Z,99.99
2018-09-30T05:59:04.665Z,99.99
2018-09-30T06:00:04.651Z,99.99
2018-09-30T06:01:04.890Z,99.99
2018-09-30T06:02:04.623Z,99.99
2018-09-30T06:03:04.860Z,99.99
2018-09-30T06:04:04.619Z,99.99
2018-09-30T06:05:04.834Z,99.99
2018-09-30T06:06:04.819Z,99.99
2018-09-30T06:07:04.808Z,99.99
2018-09-30T06:08:04.793Z,99.99
2018-09-30T06:09:04.655Z,99.99
2018-09-30T06:10:04.506Z,99.99
2018-09-30T06:11:04.752Z,99.99
2018-09-30T06:12:04.737Z,99.99
2018-09-30T06:13:04.723Z,99.99
2018-09-30T06:14:04.582Z,99.99
2018-09-30T06:15:04.437Z,99.99
2018-09-30T06:16:04.491Z,99.99
2018-09-30T06:17:04.672Z,99.99
2018-09-30T06:18:04.400Z,99.99
2018-09-30T06:19:04.380Z,99.99
2018-09-30T06:20:04.625Z,99.99
2018-09-30T06:21:04.353Z,99.99
2018-09-30T06:22:04.602Z,99.99
2018-09-30T06:23:04.578Z,99.99
2018-09-30T06:24:04.658Z,99.99
2018-09-30T06:25:04.554Z,99.99
2018-09-30T06:26:04.284Z,99.99
2018-09-30T06:27:04.529Z,99.99
2018-09-30T06:28:04.257Z,99.99
2018-09-30T06:29:04.239Z,99.99
2018-09-30T06:30:04.226Z,99.99
2018-09-30T06:31:04.211Z,99.99
2018-09-30T06:32:04.651Z,99.99
2018-09-30T06:33:04.185Z,99.99
2018-09-30T06:34:04.434Z,99.99
2018-09-30T06:35:04.160Z,99.99
2018-09-30T06:36:04.402Z,99.99
2018-09-30T06:37:04.192Z,99.99
2018-09-30T06:38:04.372Z,99.99
2018-09-30T06:39:04.099Z,99.99
2018-09-30T06:40:04.341Z,99.99
2018-09-30T06:41:04.328Z,99.99
2018-09-30T06:42:04.055Z,99.99
2018-09-30T06:43:04.043Z,99.99
2018-09-30T06:44:04.029Z,99.99
2018-09-30T06:45:04.451Z,99.99
2018-09-30T06:46:03.998Z,99.99
2018-09-30T06:47:04.259Z,99.99
2018-09-30T06:48:04.225Z,99.99
2018-09-30T06:49:04.212Z,99.99
2018-09-30T06:50:04.216Z,99.99
2018-09-30T06:51:04.383Z,99.99
2018-09-30T06:52:04.170Z,99.99
2018-09-30T06:53:03.901Z,99.99
2018-09-30T06:54:03.888Z,99.99
2018-09-30T06:55:04.134Z,99.99
2018-09-30T06:56:04.117Z,99.99
2018-09-30T06:57:04.107Z,99.99
2018-09-30T06:58:03.831Z,99.99
2018-09-30T06:59:04.076Z,99.99
2018-09-30T07:00:04.062Z,99.99
2018-09-30T07:01:03.791Z,99.99
2018-09-30T07:02:03.776Z,99.99
2018-09-30T07:03:03.763Z,99.99
2018-09-30T07:04:04.007Z,99.99
2018-09-30T07:05:04.213Z,99.99
2018-09-30T07:06:03.978Z,99.99
2018-09-30T07:07:03.967Z,99.99
2018-09-30T07:08:03.694Z,99.99
2018-09-30T07:09:03.944Z,99.99
2018-09-30T07:10:03.920Z,99.99
2018-09-30T07:11:03.914Z,99.99
2018-09-30T07:12:03.896Z,99.99
2018-09-30T07:13:03.630Z,99.99
2018-09-30T07:14:03.869Z,99.99
2018-09-30T07:15:03.852Z,99.99
2018-09-30T07:16:03.586Z,99.99
2018-09-30T07:17:04.003Z,99.99
2018-09-30T07:18:03.817Z,99.99
2018-09-30T07:19:03.545Z,99.99
2018-09-30T07:20:03.797Z,99.99
2018-09-30T07:21:03.518Z,99.99
2018-09-30T07:22:03.760Z,99.99
2018-09-30T07:23:03.750Z,99.99
2018-09-30T07:24:03.733Z,99.99
2018-09-30T07:25:03.720Z,99.99
2018-09-30T07:26:03.452Z,99.99
2018-09-30T07:27:03.695Z,99.99
2018-09-30T07:28:03.681Z,99.99
2018-09-30T07:29:03.669Z,99.99
2018-09-30T07:30:03.658Z,98.92
2018-09-30T07:31:03.386Z,99.07
2018-09-30T07:32:03.629Z,98.21
2018-09-30T07:33:03.362Z,97.45
2018-09-30T07:34:03.609Z,99.07
2018-09-30T07:35:03.590Z,99.83
2018-09-30T07:36:03.575Z,98.59
2018-09-30T07:37:03.568Z,97.55
2018-09-30T07:38:03.552Z,98.12
2018-09-30T07:39:03.539Z,98.5
2018-09-30T07:40:03.533Z,98.21
2018-09-30T07:41:03.531Z,97.36
2018-09-30T07:42:03.503Z,94.89
2018-09-30T07:43:03.488Z,97.45
2018-09-30T07:44:03.476Z,97.55
2018-09-30T07:45:03.475Z,96.22
2018-09-30T07:46:03.450Z,94.89
2018-09-30T07:47:03.448Z,93.08
2018-09-30T07:48:03.427Z,90.8
2018-09-30T07:49:03.157Z,88.47
2018-09-30T07:50:03.145Z,86.29
2018-09-30T07:51:03.388Z,86.47
2018-09-30T07:52:03.123Z,86.19
2018-09-30T07:53:03.364Z,85.05
2018-09-30T07:54:03.353Z,83.34
2018-09-30T07:55:03.345Z,83.53
2018-09-30T07:56:03.330Z,81.25
2018-09-30T07:57:03.321Z,77.83
2018-09-30T07:58:03.302Z,76.82
2018-09-30T07:59:03.035Z,77.97
2018-09-30T08:00:03.284Z,78.53
2018-09-30T08:01:03.011Z,75.11
2018-09-30T08:02:03.253Z,74.54
2018-09-30T08:03:03.244Z,68.93
2018-09-30T08:04:03.230Z,66.49
2018-09-30T08:05:03.218Z,65.73
2018-09-30T08:06:02.953Z,59.93
2018-09-30T08:07:02.941Z,56.31
2018-09-30T08:08:03.183Z,56.72
2018-09-30T08:09:03.175Z,59.2
2018-09-30T08:10:03.162Z,60.34
2018-09-30T08:11:02.894Z,61.38
2018-09-30T08:12:03.137Z,61.1
2018-09-30T08:13:03.134Z,61
2018-09-30T08:14:03.122Z,61.1
2018-09-30T08:15:03.104Z,60.85
2018-09-30T08:16:03.094Z,57.23
2018-09-30T08:17:03.201Z,52.94
2018-09-30T08:18:03.072Z,50.85
2018-09-30T08:19:03.065Z,50.75
2018-09-30T08:20:03.050Z,50.09
2018-09-30T08:21:03.043Z,49.54
2018-09-30T08:22:03.028Z,48.58
2018-09-30T08:23:03.018Z,49.63
2018-09-30T08:24:03.169Z,53.54
2018-09-30T08:25:02.996Z,52.01
2018-09-30T08:26:02.992Z,51.92
2018-09-30T08:27:02.974Z,51.92
2018-09-30T08:28:02.969Z,52.2
2018-09-30T08:29:02.955Z,49.63
2018-09-30T08:30:02.946Z,48.02
2018-09-30T08:31:02.941Z,47.82
2018-09-30T08:32:02.924Z,47.06
2018-09-30T08:33:02.918Z,46.01
2018-09-30T08:34:02.904Z,46.01
2018-09-30T08:35:02.643Z,45.83
2018-09-30T08:36:02.884Z,44.96
2018-09-30T08:37:02.617Z,43.73
2018-09-30T08:38:02.883Z,43.27
2018-09-30T08:39:02.852Z,43.46
2018-09-30T08:40:03.031Z,43.37
2018-09-30T08:41:02.842Z,44.32
2018-09-30T08:42:02.573Z,44.42
2018-09-30T08:43:02.813Z,46.23
2018-09-30T08:44:02.887Z,46.8
2018-09-30T08:45:02.797Z,46.89
2018-09-30T08:46:02.789Z,46.04
2018-09-30T08:47:02.777Z,46.04
2018-09-30T08:48:02.764Z,45.84
2018-09-30T08:49:02.756Z,44.7
2018-09-30T08:50:02.744Z,44.04
2018-09-30T08:51:02.746Z,44.13
2018-09-30T08:52:02.726Z,43.94
2018-09-30T08:53:02.721Z,42.32
2018-09-30T08:54:02.453Z,41.36
2018-09-30T08:55:02.710Z,39.48
2018-09-30T08:56:02.846Z,39.19
2018-09-30T08:57:02.682Z,38.15
2018-09-30T08:58:02.670Z,38.24
2018-09-30T08:59:02.664Z,39.1
2018-09-30T09:00:02.654Z,40.34
2018-09-30T09:01:02.390Z,39
2018-09-30T09:02:02.639Z,38.15
2018-09-30T09:03:02.779Z,37.48
2018-09-30T09:04:02.618Z,36.54
2018-09-30T09:05:02.352Z,34.82
2018-09-30T09:06:02.599Z,35.21
2018-09-30T09:07:02.587Z,34.63
2018-09-30T09:08:02.578Z,37.88
2018-09-30T09:09:02.576Z,35.49
2018-09-30T09:10:02.570Z,33.22
2018-09-30T09:11:02.298Z,33.03
2018-09-30T09:12:02.544Z,32.74
2018-09-30T09:13:02.539Z,32.84
2018-09-30T09:14:02.525Z,31.12
2018-09-30T09:15:02.519Z,29.7
2018-09-30T09:16:02.509Z,32.57
2018-09-30T09:17:02.509Z,31.04
2018-09-30T09:18:02.506Z,29.89
2018-09-30T09:19:02.488Z,29.41
2018-09-30T09:20:02.476Z,33.54
2018-09-30T09:21:02.468Z,36.21
2018-09-30T09:22:02.460Z,33.83
2018-09-30T09:23:02.454Z,29.91
2018-09-30T09:24:02.446Z,29.91
2018-09-30T09:25:02.438Z,31.82
2018-09-30T09:26:02.182Z,34.42
2018-09-30T09:27:02.423Z,36.52
2018-09-30T09:28:02.166Z,33.07
2018-09-30T09:29:02.405Z,29.25
2018-09-30T09:30:02.400Z,27.25
2018-09-30T09:31:02.389Z,26.67
2018-09-30T09:32:02.439Z,27.05
2018-09-30T09:33:02.506Z,27.82
2018-09-30T09:34:02.371Z,27.91
2018-09-30T09:35:02.420Z,27.15
2018-09-30T09:36:02.097Z,26.76
2018-09-30T09:37:02.088Z,26.11
2018-09-30T09:38:02.337Z,25.04
2018-09-30T09:39:02.329Z,24.58
2018-09-30T09:40:02.327Z,25.54
2018-09-30T09:41:02.314Z,24.68
2018-09-30T09:42:02.308Z,24.1
2018-09-30T09:43:02.297Z,25.73
2018-09-30T09:44:02.294Z,26.78
2018-09-30T09:45:02.287Z,27.93
2018-09-30T09:46:02.024Z,27.73
2018-09-30T09:47:02.088Z,28.69
2018-09-30T09:48:02.271Z,27.37
2018-09-30T09:49:02.256Z,26.31
2018-09-30T09:50:01.996Z,25.36
2018-09-30T09:51:02.244Z,26.51
2018-09-30T09:52:02.233Z,24.5
2018-09-30T09:53:02.230Z,23.63
2018-09-30T09:54:02.224Z,24.4
2018-09-30T09:55:02.220Z,24.59
2018-09-30T09:56:02.212Z,24.5
2018-09-30T09:57:02.202Z,23.83
2018-09-30T09:58:01.939Z,22.58
2018-09-30T09:59:02.015Z,22.49
2018-09-30T10:00:01.933Z,24.98
2018-09-30T10:01:02.175Z,25.93
2018-09-30T10:02:02.168Z,25.66
2018-09-30T10:03:02.162Z,24.99
2018-09-30T10:04:02.167Z,24.99
2018-09-30T10:05:02.232Z,24.7
2018-09-30T10:06:02.144Z,24.99
2018-09-30T10:07:02.140Z,26.14
2018-09-30T10:08:02.180Z,25.37
2018-09-30T10:09:01.866Z,26.33
2018-09-30T10:10:02.118Z,25.85
2018-09-30T10:11:01.858Z,24.6
2018-09-30T10:12:02.102Z,25.27
2018-09-30T10:13:01.912Z,26.33
2018-09-30T10:14:02.096Z,26.81
2018-09-30T10:15:02.090Z,27.95
2018-09-30T10:16:02.083Z,26.23
2018-09-30T10:17:02.076Z,24.8
2018-09-30T10:18:02.068Z,23.93
2018-09-30T10:19:01.806Z,25.95
2018-09-30T10:20:02.058Z,28.05
2018-09-30T10:21:01.793Z,27
2018-09-30T10:22:02.045Z,27.95
2018-09-30T10:23:02.040Z,24.81
2018-09-30T10:24:02.028Z,22.51
2018-09-30T10:25:02.025Z,20.59
2018-09-30T10:26:02.016Z,19.35
2018-09-30T10:27:02.008Z,18.87
2018-09-30T10:28:02.004Z,17.72
2018-09-30T10:29:02.004Z,19.16
2018-09-30T10:30:02.002Z,20.69
2018-09-30T10:31:01.731Z,21.17
2018-09-30T10:32:01.990Z,20.98
2018-09-30T10:33:01.976Z,27.49
2018-09-30T10:34:01.967Z,33.62
2018-09-30T10:35:01.964Z,34.2
2018-09-30T10:36:01.959Z,33.91
2018-09-30T10:37:01.951Z,35.63
2018-09-30T10:38:01.943Z,35.25
2018-09-30T10:39:02.318Z,35.53
2018-09-30T10:40:01.936Z,35.44
2018-09-30T10:41:01.927Z,35.35
2018-09-30T10:42:01.918Z,36.11
2018-09-30T10:43:01.662Z,36.69
2018-09-30T10:44:01.911Z,37.74
2018-09-30T10:45:01.905Z,37.55
2018-09-30T10:46:01.900Z,36.49
2018-09-30T10:47:01.895Z,36.49
2018-09-30T10:48:01.889Z,36.79
2018-09-30T10:49:01.884Z,36.21
2018-09-30T10:50:01.875Z,35.35
2018-09-30T10:51:01.870Z,35.35
2018-09-30T10:52:01.608Z,34.39
2018-09-30T10:53:01.606Z,33.54
2018-09-30T10:54:01.857Z,33.62
2018-09-30T10:55:01.846Z,31.99
2018-09-30T10:56:01.841Z,29.9
2018-09-30T10:57:02.115Z,30.29
2018-09-30T10:58:01.574Z,31.51
2018-09-30T10:59:01.836Z,32.38
2018-09-30T11:00:01.823Z,31.05
2018-09-30T11:01:01.821Z,29.71
2018-09-30T11:02:01.809Z,27.03
2018-09-30T11:03:01.550Z,27.98
2018-09-30T11:04:01.799Z,30
2018-09-30T11:05:01.792Z,32.68
2018-09-30T11:06:01.788Z,33.54
2018-09-30T11:07:01.780Z,33.73
2018-09-30T11:08:01.780Z,34.5
2018-09-30T11:09:01.776Z,33.06
2018-09-30T11:10:01.587Z,33.06
2018-09-30T11:11:01.760Z,33.25
2018-09-30T11:12:01.497Z,34.5
2018-09-30T11:13:01.752Z,33.83
2018-09-30T11:14:01.741Z,30.67
2018-09-30T11:15:01.487Z,29.71
2018-09-30T11:16:01.532Z,30.86
2018-09-30T11:17:01.471Z,31.63
2018-09-30T11:18:01.465Z,31.82
2018-09-30T11:19:01.714Z,33.06
2018-09-30T11:20:01.710Z,32.87
2018-09-30T11:21:01.706Z,32.97
2018-09-30T11:22:01.696Z,33.83
2018-09-30T11:23:01.697Z,32.97
2018-09-30T11:24:01.689Z,33.37
2018-09-30T11:25:01.681Z,31.92
2018-09-30T11:26:01.679Z,31.34
2018-09-30T11:27:01.671Z,32.59
2018-09-30T11:28:01.666Z,34.41
2018-09-30T11:29:01.667Z,33.92
2018-09-30T11:30:01.401Z,33.16
2018-09-30T11:31:01.401Z,33.83
2018-09-30T11:32:01.811Z,33.92
2018-09-30T11:33:01.645Z,34.22
2018-09-30T11:34:01.637Z,33.92
2018-09-30T11:35:01.377Z,35.08
2018-09-30T11:36:01.624Z,34.98
2018-09-30T11:37:01.618Z,34.69
2018-09-30T11:38:01.617Z,34.69
2018-09-30T11:39:01.618Z,36.51
2018-09-30T11:40:01.357Z,37.18
2018-09-30T11:41:01.601Z,38.05
2018-09-30T11:42:01.339Z,37.66
2018-09-30T11:43:01.336Z,36.22
2018-09-30T11:44:01.334Z,36.32
2018-09-30T11:45:01.582Z,36.42
2018-09-30T11:46:01.577Z,37.28
2018-09-30T11:47:01.577Z,38.05
2018-09-30T11:48:01.565Z,38.62
2018-09-30T11:49:01.301Z,39.97
2018-09-30T11:50:01.552Z,39.97
2018-09-30T11:51:01.554Z,40.83
2018-09-30T11:52:01.539Z,39.2
2018-09-30T11:53:01.543Z,37.76
2018-09-30T11:54:01.277Z,35.55
2018-09-30T11:55:01.540Z,35.84
2018-09-30T11:56:01.524Z,36.4
2018-09-30T11:57:01.515Z,36.79
2018-09-30T11:58:01.513Z,37.55
2018-09-30T11:59:01.505Z,38.03
2018-09-30T12:00:01.500Z,38.7
2018-09-30T12:01:01.506Z,39.37
2018-09-30T12:02:01.489Z,39.08
2018-09-30T12:03:01.232Z,38.98
2018-09-30T12:04:01.482Z,40.71
2018-09-30T12:05:01.473Z,38.51
2018-09-30T12:06:01.472Z,38.79
2018-09-30T12:07:01.463Z,37.45
2018-09-30T12:08:01.462Z,37.55
2018-09-30T12:09:01.455Z,38.32
2018-09-30T12:10:01.451Z,38.22
2018-09-30T12:11:01.442Z,37.93
2018-09-30T12:12:01.449Z,38.79
2018-09-30T12:13:01.432Z,37.07
2018-09-30T12:14:01.428Z,36.88
2018-09-30T12:15:01.425Z,38.89
2018-09-30T12:16:01.416Z,36.21
2018-09-30T12:17:01.417Z,35.53
2018-09-30T12:18:01.407Z,36.02
2018-09-30T12:19:01.403Z,36.69
2018-09-30T12:20:01.399Z,36.69
2018-09-30T12:21:01.139Z,35.83
2018-09-30T12:22:01.388Z,34.1
2018-09-30T12:23:01.380Z,34.39
2018-09-30T12:24:01.375Z,34.2
2018-09-30T12:25:01.372Z,34.48
2018-09-30T12:26:01.559Z,34.18
2018-09-30T12:27:01.114Z,34.08
2018-09-30T12:28:01.100Z,35.42
2018-09-30T12:29:01.348Z,35.52
2018-09-30T12:30:01.344Z,35.33
2018-09-30T12:31:01.338Z,35.14
2018-09-30T12:32:01.331Z,35.14
2018-09-30T12:33:01.329Z,36.1
2018-09-30T12:34:01.323Z,36.47
2018-09-30T12:35:01.062Z,36.57
2018-09-30T12:36:01.316Z,36.49
2018-09-30T12:37:01.306Z,37.63
2018-09-30T12:38:01.305Z,37.74
2018-09-30T12:39:01.293Z,36.11
2018-09-30T12:40:01.288Z,34.87
2018-09-30T12:41:01.282Z,36.88
2018-09-30T12:42:01.280Z,37.16
2018-09-30T12:43:01.275Z,36.67
2018-09-30T12:44:01.271Z,35.35
2018-09-30T12:45:01.005Z,36.4
2018-09-30T12:46:01.002Z,35.35
2018-09-30T12:47:00.994Z,34.67
2018-09-30T12:48:00.992Z,35.53
2018-09-30T12:49:00.986Z,35.52
2018-09-30T12:50:00.977Z,35.33
2018-09-30T12:51:00.976Z,35.33
2018-09-30T12:52:01.227Z,35.44
2018-09-30T12:53:00.964Z,35.44